Time;durP1;ratioP1;P1;durP2;ratioP2;P2;SDS_P1;SDS_P2;PMS_P1;PMS_P2;Temp;Humidity;BMP_temperature;BMP_pressure;BME280_temperature;BME280_humidity;BME280_pressure;Samples;Min_cycle;Max_cycle;Signal;HPM_P1;HPM_P2
2021/12/12 00:00:50;;;;;;;14.20;5.73;;;-5.30;99.90;;;;;;5017044;28;20422;-79
2021/12/12 00:03:33;;;;;;;12.63;6.70;;;-5.70;99.90;;;;;;5017573;28;20451;-80
2021/12/12 00:06:03;;;;;;;17.33;9.43;;;-4.50;99.90;;;;;;5016487;28;20425;-83
2021/12/12 00:08:29;;;;;;;13.90;7.17;;;-4.60;99.90;;;;;;5017144;28;20428;-79
2021/12/12 00:11:04;;;;;;;17.23;7.10;;;-2.80;99.90;;;;;;5017545;28;20496;-80
2021/12/12 00:13:41;;;;;;;12.20;5.30;;;-5.00;99.90;;;;;;5017729;28;20850;-82
2021/12/12 00:16:07;;;;;;;15.63;5.37;;;-3.00;99.90;;;;;;5017706;28;20749;-79
2021/12/12 00:18:34;;;;;;;12.20;5.20;;;-4.90;99.90;;;;;;5017387;28;20226;-80
2021/12/12 00:21:00;;;;;;;11.80;5.80;;;-4.60;99.90;;;;;;5017493;28;20879;-78
2021/12/12 00:23:26;;;;;;;14.40;5.97;;;-2.50;99.90;;;;;;5017645;28;20470;-82
2021/12/12 00:25:55;;;;;;;15.17;5.73;;;-6.40;99.90;;;;;;5017166;28;20406;-80
2021/12/12 00:28:22;;;;;;;14.10;5.83;;;-4.10;99.90;;;;;;5016710;28;20184;-79
2021/12/12 00:30:54;;;;;;;15.60;5.57;;;-2.70;99.90;;;;;;5016731;28;20932;-78
2021/12/12 00:33:20;;;;;;;15.20;4.70;;;-3.80;99.90;;;;;;5017023;28;20417;-80
2021/12/12 00:35:48;;;;;;;18.30;6.23;;;-3.50;99.90;;;;;;5016759;28;20529;-78
2021/12/12 00:38:21;;;;;;;20.10;6.27;;;-3.60;99.90;;;;;;5016680;28;20900;-81
2021/12/12 00:40:50;;;;;;;12.77;5.67;;;-2.50;99.90;;;;;;5015796;28;20422;-80
2021/12/12 00:43:54;;;;;;;19.37;6.03;;;-4.10;99.90;;;;;;5015513;28;20419;-79
2021/12/12 00:46:22;;;;;;;14.03;5.17;;;-3.90;99.90;;;;;;5026302;28;20418;-78
2021/12/12 00:48:48;;;;;;;17.93;5.40;;;-3.50;99.90;;;;;;5016475;28;20472;-81
2021/12/12 00:51:17;;;;;;;15.47;5.23;;;-2.70;99.90;;;;;;5017349;28;20403;-77
2021/12/12 00:53:44;;;;;;;12.13;5.77;;;-2.50;99.90;;;;;;5017171;28;20397;-80
2021/12/12 00:56:11;;;;;;;18.63;5.90;;;-4.10;99.90;;;;;;5016997;28;20453;-78
2021/12/12 00:58:37;;;;;;;9.47;4.23;;;-2.40;99.90;;;;;;5015817;28;20410;-78
2021/12/12 01:01:11;;;;;;;14.27;4.93;;;-3.40;99.90;;;;;;5016952;28;20418;-82
2021/12/12 01:03:42;;;;;;;13.27;5.40;;;-2.00;99.90;;;;;;5016955;28;20531;-79
2021/12/12 01:06:12;;;;;;;15.97;5.17;;;-4.40;99.90;;;;;;5016786;28;20424;-80
2021/12/12 01:08:39;;;;;;;14.27;5.03;;;-4.40;99.90;;;;;;5017152;28;20410;-80
2021/12/12 01:11:07;;;;;;;11.97;4.77;;;-2.80;99.90;;;;;;5017389;28;20442;-80
2021/12/12 01:13:34;;;;;;;14.80;5.37;;;-4.50;99.90;;;;;;5016909;28;20831;-77
2021/12/12 01:16:24;;;;;;;10.50;5.13;;;-4.50;99.90;;;;;;5016642;28;20450;-77
2021/12/12 01:18:56;;;;;;;22.53;5.60;;;-4.00;99.90;;;;;;5015397;28;20405;-77
2021/12/12 01:21:30;;;;;;;15.00;6.93;;;-4.50;99.90;;;;;;5015858;28;20452;-77
2021/12/12 01:24:19;;;;;;;15.07;5.50;;;-3.50;99.90;;;;;;5016275;28;20709;-78
2021/12/12 01:26:46;;;;;;;14.27;4.50;;;-2.10;99.90;;;;;;5015020;28;20419;-77
2021/12/12 01:29:14;;;;;;;10.17;4.97;;;-3.20;99.90;;;;;;5016150;28;20397;-78
2021/12/12 01:31:47;;;;;;;9.03;4.33;;;-4.30;99.90;;;;;;5016069;28;20425;-78
2021/12/12 01:34:16;;;;;;;14.20;5.00;;;-4.20;99.90;;;;;;5016228;28;20169;-80
2021/12/12 01:39:44;;;;;;;18.90;6.60;;;-3.80;99.90;;;;;;5017539;28;20959;-78
2021/12/12 01:42:24;;;;;;;9.50;3.97;;;-3.20;99.90;;;;;;5015071;28;20596;-79
2021/12/12 01:45:10;;;;;;;41.50;8.53;;;-3.30;99.90;;;;;;5014861;28;20413;-78
2021/12/12 01:47:41;;;;;;;10.93;4.43;;;-3.20;99.90;;;;;;5015124;28;20463;-78
2021/12/12 01:50:15;;;;;;;17.27;5.73;;;-2.80;99.90;;;;;;5015868;28;20417;-78
2021/12/12 01:52:42;;;;;;;14.30;4.33;;;-3.80;99.90;;;;;;5015709;28;20453;-78
2021/12/12 01:55:24;;;;;;;10.43;4.47;;;-3.40;99.90;;;;;;5015101;28;20512;-82
2021/12/12 01:57:55;;;;;;;8.20;3.90;;;-3.90;99.90;;;;;;5015675;28;20413;-79
2021/12/12 02:00:36;;;;;;;14.10;4.93;;;-4.10;99.90;;;;;;5016932;28;20196;-77
2021/12/12 02:03:04;;;;;;;20.90;4.27;;;-4.20;99.90;;;;;;5016976;28;20394;-81
2021/12/12 02:05:31;;;;;;;9.23;4.23;;;-3.30;99.90;;;;;;5016180;28;20399;-79
2021/12/12 02:08:03;;;;;;;16.13;4.87;;;-4.40;99.90;;;;;;5015663;28;20436;-78
2021/12/12 02:10:42;;;;;;;8.57;6.00;;;-2.30;99.90;;;;;;5015925;28;20415;-78
2021/12/12 02:13:11;;;;;;;15.80;4.97;;;-2.00;99.90;;;;;;5015192;28;20421;-78
2021/12/12 02:15:39;;;;;;;10.47;4.67;;;-3.40;99.90;;;;;;5015977;28;20561;-78
2021/12/12 02:18:11;;;;;;;12.33;3.80;;;-4.00;99.90;;;;;;5014741;28;20413;-78
2021/12/12 02:20:52;;;;;;;11.13;5.03;;;-4.10;99.90;;;;;;5015470;28;20864;-78
2021/12/12 02:23:30;;;;;;;14.03;4.43;;;-3.80;99.90;;;;;;5015684;28;20418;-78
2021/12/12 02:37:02;;;;;;;10.60;4.00;;;-3.80;99.90;;;;;;5020604;28;20460;-83
2021/12/12 02:39:28;;;;;;;8.70;4.43;;;-3.90;99.90;;;;;;5019871;28;20476;-82
2021/12/12 02:41:58;;;;;;;10.87;3.83;;;-1.10;99.90;;;;;;5020590;28;20829;-84
2021/12/12 02:44:29;;;;;;;10.53;4.13;;;-3.80;99.90;;;;;;5020249;28;20397;-77
2021/12/12 02:46:59;;;;;;;11.43;3.77;;;-3.70;99.90;;;;;;5019510;28;20402;-80
2021/12/12 02:52:08;;;;;;;12.87;4.47;;;-2.70;99.90;;;;;;5021049;28;20427;-83
2021/12/12 02:54:34;;;;;;;12.50;4.63;;;-3.40;99.90;;;;;;5020570;28;20445;-82
2021/12/12 02:57:01;;;;;;;12.60;4.60;;;-3.20;99.90;;;;;;5017980;28;20414;-78
2021/12/12 02:59:26;;;;;;;9.73;4.53;;;-3.50;99.90;;;;;;5018667;28;20901;-83
2021/12/12 03:01:55;;;;;;;10.07;3.90;;;-2.80;99.90;;;;;;5017627;28;20513;-83
2021/12/12 03:04:24;;;;;;;11.17;4.40;;;-3.40;99.90;;;;;;5019602;28;20175;-82
2021/12/12 03:06:51;;;;;;;15.10;5.60;;;-4.60;99.90;;;;;;5017701;28;20422;-83
2021/12/12 03:09:27;;;;;;;8.30;3.80;;;-4.60;99.90;;;;;;5019253;28;20785;-84
2021/12/12 03:11:58;;;;;;;11.90;4.73;;;-4.60;99.90;;;;;;5018709;28;20924;-80
2021/12/12 03:14:32;;;;;;;8.90;3.93;;;-3.50;99.90;;;;;;5018865;28;20455;-83
2021/12/12 03:17:04;;;;;;;13.63;4.77;;;-4.40;99.90;;;;;;5018697;28;20403;-83
2021/12/12 03:19:30;;;;;;;8.50;3.70;;;-4.10;99.90;;;;;;5018792;28;20407;-77
2021/12/12 03:21:56;;;;;;;7.63;4.00;;;-2.80;99.90;;;;;;5017798;28;20399;-76
2021/12/12 03:24:25;;;;;;;10.80;3.53;;;-4.00;99.90;;;;;;5018231;28;20545;-77
2021/12/12 03:26:56;;;;;;;7.93;3.93;;;-2.70;99.90;;;;;;5017820;28;20421;-76
2021/12/12 03:29:23;;;;;;;9.57;3.60;;;-4.00;99.90;;;;;;5016890;28;20879;-77
2021/12/12 03:31:53;;;;;;;6.90;3.93;;;-3.10;99.90;;;;;;5018403;28;20418;-81
2021/12/12 03:34:22;;;;;;;7.60;4.43;;;-4.30;99.90;;;;;;5018299;28;20226;-77
2021/12/12 03:36:50;;;;;;;9.03;4.17;;;-2.60;99.90;;;;;;5017625;28;20530;-77
2021/12/12 03:39:25;;;;;;;6.37;3.93;;;-2.50;99.90;;;;;;5018635;28;20412;-80
2021/12/12 03:41:54;;;;;;;4.50;3.33;;;-3.70;99.90;;;;;;5018499;28;20490;-79
2021/12/12 03:44:25;;;;;;;5.67;4.63;;;-3.70;99.90;;;;;;5017013;28;20421;-77
2021/12/12 03:46:57;;;;;;;4.67;3.33;;;-3.30;99.90;;;;;;5017842;28;20497;-83
2021/12/12 03:49:24;;;;;;;5.83;3.93;;;-3.40;99.90;;;;;;5017946;28;20441;-80
2021/12/12 03:51:51;;;;;;;6.53;3.50;;;-3.30;99.90;;;;;;5018104;28;20411;-84
2021/12/12 03:54:18;;;;;;;6.27;4.00;;;-2.20;99.90;;;;;;5018171;28;20399;-84
2021/12/12 03:56:45;;;;;;;5.80;3.60;;;-2.70;99.90;;;;;;5017956;28;20463;-80
2021/12/12 03:59:14;;;;;;;4.27;3.73;;;-5.80;99.90;;;;;;5017377;28;20441;-80
2021/12/12 04:01:45;;;;;;;8.23;3.37;;;-4.50;99.90;;;;;;5017349;28;20417;-82
2021/12/12 04:04:22;;;;;;;3.43;3.13;;;-2.30;99.90;;;;;;5017441;28;20407;-78
2021/12/12 04:06:51;;;;;;;5.87;2.70;;;-4.00;99.90;;;;;;5016736;28;20471;-82
2021/12/12 04:09:18;;;;;;;6.77;3.63;;;-4.70;99.90;;;;;;5017328;28;20844;-82
2021/12/12 04:11:48;;;;;;;4.47;3.67;;;-4.10;99.90;;;;;;5017268;28;20437;-80
2021/12/12 04:14:15;;;;;;;3.70;3.10;;;-2.30;99.90;;;;;;5017340;28;20713;-80
2021/12/12 04:16:43;;;;;;;3.57;3.27;;;-4.40;99.90;;;;;;5016342;28;20458;-80
2021/12/12 04:19:10;;;;;;;5.47;4.07;;;-4.30;99.90;;;;;;5016083;28;20460;-81
2021/12/12 04:21:38;;;;;;;4.77;4.33;;;-2.90;99.90;;;;;;5015757;28;20414;-81
2021/12/12 04:24:04;;;;;;;3.97;3.67;;;-4.20;99.90;;;;;;5015823;28;20461;-80
2021/12/12 04:26:37;;;;;;;4.10;3.77;;;-4.00;99.90;;;;;;5015802;28;20188;-82
2021/12/12 04:29:11;;;;;;;4.03;3.60;;;-3.80;99.90;;;;;;5017076;28;20503;-83
2021/12/12 04:31:40;;;;;;;5.00;4.53;;;-4.80;99.90;;;;;;5017328;28;20451;-82
2021/12/12 04:34:06;;;;;;;4.20;3.90;;;-3.30;99.90;;;;;;5016532;28;20544;-79
2021/12/12 04:36:39;;;;;;;5.23;4.17;;;-2.80;99.90;;;;;;5016273;28;20464;-80
2021/12/12 04:39:13;;;;;;;4.57;4.23;;;-4.30;99.90;;;;;;5015495;28;20409;-80
2021/12/12 04:41:40;;;;;;;3.93;3.63;;;-4.30;99.90;;;;;;5016596;28;20538;-81
2021/12/12 04:44:06;;;;;;;3.87;3.47;;;-4.40;99.90;;;;;;5016483;28;20425;-80
2021/12/12 04:52:31;;;;;;;4.83;3.27;;;-3.40;99.90;;;;;;5016741;28;20410;-80
2021/12/12 04:55:14;;;;;;;5.60;3.17;;;-3.00;99.90;;;;;;5015486;28;20451;-82
2021/12/12 04:57:46;;;;;;;6.57;2.77;;;-1.20;99.90;;;;;;5015528;28;20176;-79
2021/12/12 05:00:20;;;;;;;3.80;3.50;;;-3.60;99.90;;;;;;5014864;28;20410;-79
2021/12/12 05:03:15;;;;;;;3.20;3.00;;;-3.60;99.90;;;;;;5015098;28;20469;-80
2021/12/12 05:05:54;;;;;;;4.40;3.60;;;-3.80;99.90;;;;;;5015088;28;20409;-79
2021/12/12 05:08:22;;;;;;;3.60;3.30;;;-2.00;99.90;;;;;;5016224;28;20411;-80
2021/12/12 05:10:59;;;;;;;2.73;2.53;;;-3.80;99.90;;;;;;5016107;28;20461;-80
2021/12/12 05:13:36;;;;;;;3.13;2.80;;;-3.60;99.90;;;;;;5016343;28;20401;-81
2021/12/12 05:16:09;;;;;;;5.67;4.37;;;-3.50;99.90;;;;;;5016069;28;20450;-81
2021/12/12 05:18:39;;;;;;;3.97;3.50;;;-3.00;99.90;;;;;;5014992;28;20459;-81
2021/12/12 05:21:11;;;;;;;5.30;3.80;;;-3.30;99.90;;;;;;5016095;28;20479;-78
2021/12/12 05:23:49;;;;;;;3.90;3.60;;;-3.20;99.90;;;;;;5016236;28;20388;-77
2021/12/12 05:26:25;;;;;;;5.00;3.67;;;-2.90;99.90;;;;;;5016143;28;20411;-78
2021/12/12 05:29:02;;;;;;;4.30;3.90;;;-3.10;99.90;;;;;;5016110;28;20410;-77
2021/12/12 05:31:28;;;;;;;3.60;3.30;;;-2.80;99.90;;;;;;5016110;28;20508;-79
2021/12/12 05:33:55;;;;;;;3.30;3.03;;;-1.90;99.90;;;;;;5016105;28;20842;-79
2021/12/12 05:36:22;;;;;;;4.37;3.33;;;-3.20;99.90;;;;;;5017087;28;20500;-79
2021/12/12 05:38:49;;;;;;;3.80;3.07;;;-2.30;99.90;;;;;;5017359;28;20173;-80
2021/12/12 05:41:20;;;;;;;3.53;3.23;;;-3.30;99.90;;;;;;5015682;28;20413;-78
2021/12/12 05:43:48;;;;;;;3.70;3.40;;;-4.10;99.90;;;;;;5015298;28;20412;-78
2021/12/12 05:46:18;;;;;;;3.97;3.70;;;-3.70;99.90;;;;;;5015445;28;20411;-80
2021/12/12 05:48:44;;;;;;;3.10;2.83;;;-2.90;99.90;;;;;;5015797;28;20516;-78
2021/12/12 05:51:10;;;;;;;4.53;3.33;;;-2.30;99.90;;;;;;5014989;28;20746;-79
2021/12/12 05:53:37;;;;;;;3.03;2.83;;;-4.00;99.90;;;;;;5016078;28;20497;-79
2021/12/12 05:56:03;;;;;;;2.90;2.70;;;-3.80;99.90;;;;;;5015043;28;20455;-78
2021/12/12 05:58:30;;;;;;;3.00;2.80;;;-3.00;99.90;;;;;;5016039;28;20608;-78
2021/12/12 06:01:03;;;;;;;3.40;3.10;;;-3.90;99.90;;;;;;5014675;28;20182;-78
2021/12/12 06:03:34;;;;;;;3.17;2.97;;;-3.60;99.90;;;;;;5015881;28;20215;-79
2021/12/12 06:06:04;;;;;;;3.83;3.53;;;-3.30;99.90;;;;;;5016070;28;20407;-78
2021/12/12 06:08:31;;;;;;;2.87;2.77;;;-3.20;99.90;;;;;;5019947;28;20581;-78
2021/12/12 06:10:57;;;;;;;4.33;3.93;;;-3.50;99.90;;;;;;5019506;28;20239;-79
2021/12/12 06:13:24;;;;;;;3.83;3.53;;;-3.40;99.90;;;;;;5020389;28;20406;-83
2021/12/12 06:15:53;;;;;;;4.23;3.83;;;-3.10;99.90;;;;;;5019631;28;20292;-78
2021/12/12 06:18:22;;;;;;;4.17;3.83;;;-3.60;99.90;;;;;;5019060;28;20177;-80
2021/12/12 06:20:48;;;;;;;4.77;3.77;;;-4.10;99.90;;;;;;5019247;28;20212;-79
2021/12/12 06:23:16;;;;;;;4.10;3.53;;;-1.70;99.90;;;;;;5019988;28;20599;-78
2021/12/12 06:25:44;;;;;;;5.13;3.80;;;-3.80;99.90;;;;;;5018787;28;20488;-77
2021/12/12 06:28:14;;;;;;;4.37;3.97;;;-4.80;99.90;;;;;;5018759;28;20191;-81
2021/12/12 06:30:41;;;;;;;4.20;3.43;;;-4.40;99.90;;;;;;5017449;28;20192;-77
2021/12/12 06:33:10;;;;;;;6.83;4.43;;;-4.60;99.90;;;;;;5019056;28;20593;-81
2021/12/12 06:35:36;;;;;;;6.70;4.70;;;-4.40;99.90;;;;;;5018468;28;20215;-82
2021/12/12 06:38:05;;;;;;;4.87;4.47;;;-3.90;99.90;;;;;;5019896;28;20253;-80
2021/12/12 06:40:31;;;;;;;7.47;4.57;;;-2.00;99.90;;;;;;5020846;28;20239;-82
2021/12/12 06:43:00;;;;;;;5.40;4.77;;;-3.80;99.90;;;;;;5019814;28;20166;-79
2021/12/12 06:45:26;;;;;;;7.40;5.57;;;-2.90;99.90;;;;;;5019758;28;20180;-87
2021/12/12 06:47:54;;;;;;;14.73;5.83;;;-3.50;99.90;;;;;;5019045;28;20209;-81
2021/12/12 06:50:20;;;;;;;12.30;6.30;;;-1.80;99.90;;;;;;5019913;28;20414;-81
2021/12/12 06:52:47;;;;;;;14.53;7.23;;;-3.30;99.90;;;;;;5019042;28;20181;-82
2021/12/12 06:55:13;;;;;;;9.27;6.33;;;-3.40;99.90;;;;;;5018978;28;20197;-80
2021/12/12 06:57:40;;;;;;;13.60;7.13;;;-4.30;99.90;;;;;;5018130;28;20606;-81
2021/12/12 07:00:12;;;;;;;9.47;6.90;;;-3.40;99.90;;;;;;5017673;28;20178;-82
2021/12/12 07:02:42;;;;;;;11.23;7.00;;;-3.80;99.90;;;;;;5019097;28;20184;-80
2021/12/12 07:05:10;;;;;;;11.00;7.30;;;-2.40;99.90;;;;;;5018659;28;20460;-83
2021/12/12 07:07:36;;;;;;;8.10;6.90;;;-2.40;99.90;;;;;;5018630;28;20489;-82
2021/12/12 07:10:05;;;;;;;10.27;6.87;;;-3.40;99.90;;;;;;5018511;28;20253;-81
2021/12/12 07:12:32;;;;;;;11.00;6.20;;;-4.00;99.90;;;;;;5017391;28;20600;-83
2021/12/12 07:14:58;;;;;;;9.53;7.13;;;-3.90;99.90;;;;;;5017208;28;20590;-82
2021/12/12 07:17:24;;;;;;;7.30;6.23;;;-4.20;99.90;;;;;;5019119;28;20240;-84
2021/12/12 07:19:51;;;;;;;11.43;6.97;;;-3.70;99.90;;;;;;5021077;28;20260;-83
2021/12/12 07:22:17;;;;;;;12.33;7.57;;;-2.40;99.90;;;;;;5019002;28;20395;-82
2021/12/12 07:24:44;;;;;;;9.60;7.33;;;-4.00;99.90;;;;;;5018438;28;20577;-81
2021/12/12 07:27:13;;;;;;;13.70;8.80;;;-1.70;99.90;;;;;;5018981;28;20193;-82
2021/12/12 07:29:39;;;;;;;13.13;8.67;;;-5.20;99.90;;;;;;5025725;28;20196;-81
2021/12/12 07:32:05;;;;;;;12.20;8.13;;;-3.30;99.90;;;;;;5021547;28;20644;-79
2021/12/12 07:34:31;;;;;;;13.87;8.10;;;-3.90;99.90;;;;;;5018929;28;20174;-81
2021/12/12 07:37:01;;;;;;;11.27;8.40;;;-3.20;99.90;;;;;;5019606;28;20254;-81
2021/12/12 07:39:29;;;;;;;14.07;8.17;;;-4.00;99.90;;;;;;5022532;28;20181;-82
2021/12/12 07:41:57;;;;;;;12.73;7.97;;;-4.10;99.90;;;;;;5019624;28;20177;-83
2021/12/12 07:44:28;;;;;;;14.93;9.57;;;-3.30;99.90;;;;;;5018722;28;20184;-81
2021/12/12 07:46:58;;;;;;;18.00;9.73;;;-3.40;99.90;;;;;;5019971;28;20583;-81
2021/12/12 07:49:30;;;;;;;15.03;9.10;;;-1.70;99.90;;;;;;5018044;28;20204;-81
2021/12/12 07:51:56;;;;;;;14.13;8.37;;;-2.80;99.90;;;;;;5018553;28;20201;-76
2021/12/12 07:54:23;;;;;;;15.73;8.77;;;-3.20;99.90;;;;;;5020311;28;20191;-78
2021/12/12 07:56:49;;;;;;;13.87;9.63;;;-3.40;99.90;;;;;;5018975;28;20193;-72
2021/12/12 07:59:17;;;;;;;10.17;9.17;;;-3.90;99.90;;;;;;5021592;28;20187;-71
2021/12/12 08:01:46;;;;;;;13.53;10.47;;;-4.30;99.90;;;;;;5024850;28;20419;-77
2021/12/12 08:04:15;;;;;;;16.23;10.07;;;-3.90;99.90;;;;;;5025314;28;20881;-85
2021/12/12 08:06:45;;;;;;;18.37;10.73;;;-3.40;99.90;;;;;;5032139;28;20230;-77
2021/12/12 08:09:11;;;;;;;15.67;9.43;;;-3.60;99.90;;;;;;5036093;28;20206;-82
2021/12/12 08:11:39;;;;;;;16.63;9.83;;;-3.90;99.90;;;;;;5033251;28;20596;-83
2021/12/12 08:14:27;;;;;;;17.80;10.00;;;-4.20;99.90;;;;;;5030422;28;20473;-78
2021/12/12 08:16:56;;;;;;;17.13;9.67;;;-4.10;99.90;;;;;;5035603;28;20234;-72
2021/12/12 08:19:29;;;;;;;13.63;8.50;;;-3.50;99.90;;;;;;5018303;28;20611;-71
2021/12/12 08:22:03;;;;;;;17.40;8.67;;;-4.00;99.90;;;;;;5031199;28;20177;-70
2021/12/12 08:24:32;;;;;;;14.17;9.07;;;-3.90;99.90;;;;;;5034943;28;20214;-71
2021/12/12 08:27:04;;;;;;;19.23;9.00;;;-3.70;99.90;;;;;;5038498;28;20180;-72
2021/12/12 08:29:34;;;;;;;17.57;9.73;;;-3.50;99.90;;;;;;5040947;28;20193;-75
2021/12/12 08:32:08;;;;;;;15.10;9.00;;;-4.10;99.90;;;;;;5035360;28;20192;-72
2021/12/12 08:34:35;;;;;;;17.27;9.17;;;-4.40;99.90;;;;;;5034312;28;20203;-73
2021/12/12 08:37:03;;;;;;;16.20;9.80;;;-4.30;99.90;;;;;;5030332;28;20254;-73
2021/12/12 08:39:30;;;;;;;13.10;9.73;;;-3.70;99.90;;;;;;5034658;28;20185;-74
2021/12/12 08:41:59;;;;;;;17.43;11.17;;;-3.00;99.90;;;;;;5035507;28;20183;-73
2021/12/12 08:44:29;;;;;;;20.30;10.13;;;-2.70;99.90;;;;;;5035042;28;20200;-73
2021/12/12 08:46:57;;;;;;;15.00;9.47;;;-2.60;99.90;;;;;;5035235;28;20265;-80
2021/12/12 08:49:26;;;;;;;12.67;8.77;;;-2.60;99.90;;;;;;5034945;28;20204;-77
2021/12/12 08:52:08;;;;;;;16.83;8.70;;;-2.40;99.90;;;;;;5034580;28;20183;-71
2021/12/12 08:54:37;;;;;;;15.63;10.03;;;-2.40;99.90;;;;;;5033103;28;20588;-72
2021/12/12 08:57:20;;;;;;;14.67;9.07;;;-2.40;99.90;;;;;;5035101;28;20197;-72
2021/12/12 08:59:48;;;;;;;15.50;8.80;;;-2.60;99.90;;;;;;5038960;28;20180;-71
2021/12/12 09:02:18;;;;;;;8.97;7.63;;;-2.30;99.90;;;;;;5033945;28;20184;-70
2021/12/12 09:04:52;;;;;;;10.13;7.87;;;-3.60;99.90;;;;;;5034184;28;20177;-70
2021/12/12 09:07:30;;;;;;;11.53;8.43;;;-3.70;99.90;;;;;;5036244;28;20603;-71
2021/12/12 09:10:13;;;;;;;11.67;7.77;;;-3.50;99.90;;;;;;5036793;28;20259;-78
2021/12/12 09:12:45;;;;;;;10.23;7.47;;;-4.50;99.90;;;;;;5034467;28;20212;-72
2021/12/12 09:15:27;;;;;;;9.20;7.63;;;-4.00;99.90;;;;;;5034453;28;20215;-75
2021/12/12 09:18:00;;;;;;;11.03;7.13;;;-3.60;99.90;;;;;;5035092;28;20185;-73
2021/12/12 09:20:48;;;;;;;9.67;7.10;;;-3.40;99.90;;;;;;5034196;28;20180;-73
2021/12/12 09:23:34;;;;;;;9.07;6.67;;;-4.30;99.90;;;;;;5034188;28;20188;-71
2021/12/12 09:26:11;;;;;;;8.13;7.33;;;-3.90;99.90;;;;;;5034389;28;20544;-70
2021/12/12 09:28:44;;;;;;;6.90;6.30;;;-4.30;99.90;;;;;;5033512;28;20483;-72
2021/12/12 09:31:25;;;;;;;8.03;7.23;;;-3.50;99.90;;;;;;5034305;28;20203;-71
2021/12/12 09:33:56;;;;;;;8.07;6.90;;;-3.90;99.90;;;;;;5033578;28;20192;-72
2021/12/12 09:36:43;;;;;;;11.10;6.90;;;-3.80;99.90;;;;;;5033414;28;20262;-73
2021/12/12 09:39:35;;;;;;;7.80;6.43;;;-3.90;99.90;;;;;;5033980;28;20186;-71
2021/12/12 09:42:34;;;;;;;10.87;6.50;;;-4.10;99.90;;;;;;5029334;28;20190;-79
2021/12/12 09:45:04;;;;;;;7.37;6.40;;;-4.00;99.90;;;;;;5038332;28;20182;-80
2021/12/12 09:51:17;;;;;;;14.97;8.07;;;-5.00;99.90;;;;;;5035935;28;20493;-82
2021/12/12 09:54:20;;;;;;;8.63;6.57;;;-5.30;99.90;;;;;;5036577;28;20242;-82
2021/12/12 09:57:22;;;;;;;8.70;7.10;;;-4.60;99.90;;;;;;5042523;28;20638;-74
2021/12/12 10:00:29;;;;;;;10.37;7.80;;;-5.10;99.90;;;;;;5027111;28;20179;-72
2021/12/12 10:03:21;;;;;;;8.77;7.40;;;-4.80;99.90;;;;;;5038015;28;20223;-71
2021/12/12 10:06:14;;;;;;;9.20;6.73;;;-4.70;99.90;;;;;;5026223;28;20214;-72
2021/12/12 10:09:08;;;;;;;9.50;8.50;;;-5.10;99.90;;;;;;5036606;28;20600;-75
2021/12/12 10:11:49;;;;;;;9.13;7.67;;;-5.00;99.90;;;;;;5030694;28;20210;-72
2021/12/12 10:14:26;;;;;;;9.37;7.37;;;-4.70;99.90;;;;;;5038165;28;20192;-71
2021/12/12 10:17:05;;;;;;;10.10;8.03;;;-4.70;99.90;;;;;;5031638;28;20288;-74
2021/12/12 10:20:05;;;;;;;10.20;8.13;;;-5.10;99.90;;;;;;5036677;28;20191;-72
2021/12/12 10:23:14;;;;;;;8.47;7.20;;;-5.10;99.90;;;;;;5034025;28;20238;-71
2021/12/12 10:26:07;;;;;;;8.60;7.53;;;-4.30;99.90;;;;;;5032041;28;20275;-72
2021/12/12 10:28:59;;;;;;;11.93;9.20;;;-4.50;99.90;;;;;;5031949;28;20217;-73
2021/12/12 10:31:32;;;;;;;11.00;8.07;;;-5.00;99.90;;;;;;5035849;28;20204;-69
2021/12/12 10:34:12;;;;;;;10.73;8.33;;;-4.00;99.90;;;;;;5033677;28;20180;-72
2021/12/12 10:37:15;;;;;;;10.10;7.83;;;-4.50;99.90;;;;;;5029231;28;20201;-72
2021/12/12 10:40:08;;;;;;;11.33;8.00;;;-4.30;99.90;;;;;;5041764;28;20612;-73
2021/12/12 10:42:48;;;;;;;12.10;9.07;;;-3.80;99.90;;;;;;5032861;28;20252;-77
2021/12/12 10:45:41;;;;;;;10.93;8.50;;;-3.90;99.90;;;;;;5035009;28;20271;-91
2021/12/12 10:48:45;;;;;;;10.20;8.43;;;-3.60;99.90;;;;;;5029923;28;20192;-87
2021/12/12 10:51:16;;;;;;;8.43;7.63;;;-3.60;99.90;;;;;;5031755;28;20656;-77
2021/12/12 10:53:46;;;;;;;9.47;8.07;;;-4.10;99.90;;;;;;5031264;28;20184;-77
2021/12/12 10:56:50;;;;;;;14.40;10.60;;;-4.30;99.90;;;;;;5030958;28;20201;-75
2021/12/12 10:59:36;;;;;;;11.37;8.87;;;-4.30;99.90;;;;;;5028019;28;20271;-83
2021/12/12 11:02:10;;;;;;;11.60;8.20;;;-3.80;99.90;;;;;;5024639;28;20187;-82
2021/12/12 11:04:47;;;;;;;12.27;9.20;;;-4.70;99.90;;;;;;5024836;28;20223;-73
2021/12/12 11:07:30;;;;;;;14.20;8.20;;;-4.80;99.90;;;;;;5022760;28;20185;-79
2021/12/12 11:10:24;;;;;;;11.70;8.03;;;-4.20;99.90;;;;;;5033206;28;20176;-82
2021/12/12 11:12:56;;;;;;;11.30;8.87;;;-4.00;99.90;;;;;;5035777;28;20663;-79
2021/12/12 11:15:38;;;;;;;10.13;9.03;;;-4.20;99.90;;;;;;5035321;28;20205;-79
2021/12/12 11:18:10;;;;;;;8.93;7.83;;;-3.80;99.90;;;;;;5028341;28;20172;-88
2021/12/12 11:20:48;;;;;;;11.03;8.30;;;-4.60;99.90;;;;;;5027840;28;20158;-81
2021/12/12 11:23:32;;;;;;;11.23;8.90;;;-4.90;99.90;;;;;;5021401;28;20255;-80
2021/12/12 11:26:05;;;;;;;11.70;9.80;;;-3.90;99.90;;;;;;5028606;28;20182;-87
2021/12/12 11:28:37;;;;;;;16.07;12.63;;;-4.10;99.90;;;;;;5028868;28;20192;-81
2021/12/12 11:31:11;;;;;;;12.47;9.07;;;-4.10;99.90;;;;;;5022334;28;20574;-86
2021/12/12 11:33:38;;;;;;;12.13;9.10;;;-4.10;99.90;;;;;;5021204;28;20277;-73
2021/12/12 11:36:08;;;;;;;9.63;8.73;;;-3.60;99.90;;;;;;5030157;28;20224;-74
2021/12/12 11:38:47;;;;;;;11.17;8.27;;;-3.70;99.90;;;;;;5032743;28;20601;-74
2021/12/12 11:41:46;;;;;;;9.03;8.00;;;-4.20;99.90;;;;;;5028111;28;20174;-74
2021/12/12 11:44:47;;;;;;;7.73;7.03;;;-4.50;99.90;;;;;;5028772;28;20201;-82
2021/12/12 11:48:12;;;;;;;10.47;7.73;;;-4.10;99.90;;;;;;5010804;28;20193;-77
2021/12/12 11:51:14;;;;;;;8.37;7.57;;;-4.20;99.90;;;;;;5046195;28;20203;-76
2021/12/12 11:53:43;;;;;;;8.97;7.37;;;-5.20;99.90;;;;;;5036498;28;20215;-82
2021/12/12 11:56:28;;;;;;;12.23;7.87;;;-5.10;99.90;;;;;;5037318;28;20225;-81
2021/12/12 11:59:22;;;;;;;6.90;6.30;;;-5.10;99.90;;;;;;5035559;28;20193;-78
2021/12/12 12:02:25;;;;;;;8.07;6.63;;;-4.60;99.90;;;;;;5031522;28;20271;-78
2021/12/12 12:04:57;;;;;;;7.03;5.57;;;-4.50;99.90;;;;;;5023126;28;20801;-77
2021/12/12 12:07:53;;;;;;;7.27;6.57;;;-4.70;99.90;;;;;;5032705;28;20216;-80
2021/12/12 12:10:57;;;;;;;7.17;6.47;;;-4.60;99.90;;;;;;5034267;28;20191;-87
2021/12/12 12:13:56;;;;;;;6.77;5.87;;;-4.30;99.90;;;;;;5029063;28;20239;-83
2021/12/12 12:16:34;;;;;;;6.30;5.70;;;-4.80;99.90;;;;;;5030710;28;20614;-83
2021/12/12 12:19:39;;;;;;;6.93;6.23;;;-4.80;99.90;;;;;;5030705;28;20186;-87
2021/12/12 12:22:19;;;;;;;6.13;5.67;;;-4.80;99.90;;;;;;5042326;28;20195;-84
2021/12/12 12:25:12;;;;;;;6.77;5.30;;;-4.00;99.90;;;;;;5034954;28;20200;-81
2021/12/12 12:28:09;;;;;;;7.03;6.40;;;-3.80;99.90;;;;;;5037026;28;20589;-90
2021/12/12 12:30:53;;;;;;;6.27;5.77;;;-3.80;99.90;;;;;;5021718;28;20542;-79
2021/12/12 12:33:58;;;;;;;7.23;5.87;;;-4.20;99.90;;;;;;5022887;28;20179;-77
2021/12/12 12:36:54;;;;;;;6.67;5.97;;;-4.00;99.90;;;;;;5029847;28;20212;-84
2021/12/12 12:39:53;;;;;;;7.13;6.13;;;-3.80;99.90;;;;;;5034930;28;20210;-86
2021/12/12 12:42:38;;;;;;;7.57;5.77;;;-3.80;99.90;;;;;;5033036;28;20272;-86
2021/12/12 12:45:42;;;;;;;7.53;6.33;;;-3.60;99.90;;;;;;5028954;28;20184;-91
2021/12/12 12:48:36;;;;;;;6.30;5.77;;;-3.60;99.90;;;;;;5033318;28;20557;-71
2021/12/12 12:51:25;;;;;;;7.93;6.13;;;-3.70;99.90;;;;;;5034696;28;20244;-78
2021/12/12 12:54:22;;;;;;;6.07;5.57;;;-4.50;99.90;;;;;;5031159;28;20177;-74
2021/12/12 12:57:17;;;;;;;5.93;5.33;;;-4.50;99.90;;;;;;5034256;28;20218;-72
2021/12/12 12:59:57;;;;;;;7.40;6.70;;;-4.20;99.90;;;;;;5033786;28;20202;-71
2021/12/12 13:02:30;;;;;;;6.97;6.43;;;-3.60;99.90;;;;;;5025287;28;20541;-74
2021/12/12 13:05:22;;;;;;;6.67;6.03;;;-4.00;99.90;;;;;;5033217;28;20175;-71
2021/12/12 13:08:26;;;;;;;5.63;5.17;;;-4.50;99.90;;;;;;5033160;28;20751;-72
2021/12/12 13:11:00;;;;;;;6.27;5.77;;;-4.80;99.90;;;;;;5033523;28;20197;-73
2021/12/12 13:13:32;;;;;;;6.63;5.67;;;-3.70;99.90;;;;;;5034823;28;20186;-76
2021/12/12 13:16:28;;;;;;;6.07;5.57;;;-4.60;99.90;;;;;;5032087;28;20300;-71
2021/12/12 13:19:09;;;;;;;7.30;6.17;;;-4.40;99.90;;;;;;5030306;28;20200;-71
2021/12/12 13:21:37;;;;;;;6.27;5.77;;;-4.40;99.90;;;;;;5043066;28;20179;-74
2021/12/12 13:24:24;;;;;;;7.63;6.07;;;-4.30;99.90;;;;;;5053945;28;20170;-71
2021/12/12 13:27:15;;;;;;;7.40;6.67;;;-4.10;99.90;;;;;;5052061;28;20323;-72
2021/12/12 13:30:08;;;;;;;7.47;6.57;;;-3.80;99.90;;;;;;5025700;28;20522;-71
2021/12/12 13:32:46;;;;;;;9.27;7.20;;;-3.70;99.90;;;;;;5015554;28;20161;-70
2021/12/12 13:35:32;;;;;;;8.00;7.30;;;-4.20;99.90;;;;;;5015522;28;20235;-73
2021/12/12 13:38:14;;;;;;;10.43;7.80;;;-4.00;99.90;;;;;;5012413;28;20169;-72
2021/12/12 13:41:06;;;;;;;6.80;6.20;;;-4.00;99.90;;;;;;5023218;28;20190;-81
2021/12/12 13:44:10;;;;;;;7.83;7.13;;;-4.10;99.90;;;;;;5033912;28;20197;-79
2021/12/12 13:47:17;;;;;;;7.20;6.53;;;-4.70;99.90;;;;;;5025897;28;20181;-78
2021/12/12 13:50:17;;;;;;;8.47;7.73;;;-4.30;99.90;;;;;;5039802;28;20208;-70